Oregon State Flying Club

The Oregon State Flying Club is a non-profit organization committed to providing safe and inexpensive flying to the Oregon State University and Linn-Benton Community College communities. The Club currently owns three aircraft based at the Corvallis Airport for training, travel, and recreational purposes. Founded in 1952 and incorporated in 1956 the OSFC is one of the oldest continuously active flying clubs in the United States.

News & Announcements

Monthly Board Meeting

Next Meeting: Wednesday, September 17, 6pm @ KCVO

Current METAR KCVO

Raw METAR:  KCVO 012035Z AUTO 00000KT 10SM CLR 26/12 A3005 RMK AO1

This is a report for Corvallis Municipal Automatic Weather Observing / Reporting System, United States. The report was made 20 minutes ago, at 20:35 UTC. The wind was calm. The temperature was 79 °F (26 °C), with a dew-point at 54 °F (12 °C). The temperature felt like 79 °F (26 °C). The atmospheric pressure was 30.05 inHg (1018 hPa). The relative humidity was 41.7%. The sky was clear. The overall visibility was 10.0 miles (16.1 kilometers).